Flugplatz Fassberg Airport

Bericht für ETHS

vom 07.12. um 17:20 UTC

Wind 6 kt aus 140°

Sichtweite 7000 m

aufgebrochene Bewölkung in 800 ft

aufgelockert bewölkt in 1500 ft

Temperatur 2.0°C

Taupunkt 1.0°C

Luftfeuchtigkeit 93%

Luftdruck 1008 hPa

ETHS 071720Z 14006KT 7000 BKN008 SCT015 02/01 Q1008 GRN

Prognose für ETHS

vom 07.12. um 14:20 UTC

Zwischen 15:00 UTC und 16:00 UTC

Wind 6 kt aus 150°

Sichtweite 8000 m

keine signifikanten Wettererscheinungen

aufgebrochene Bewölkung in 1000 ft


Zwischen 15:00 UTC und 16:00 UTC zeitweise

Wind 8 kt aus 140°

Sichtweite 4000 m

schwacher Regen

aufgebrochene Bewölkung in 600 ft


Zwischen 16:00 und 18:00 UTC übergehend zu

Wind 8 kt aus 140°

Sichtweite 5000 m

feuchter Dunst

aufgelockert bewölkt in 1000 ft

aufgebrochene Bewölkung in 10000 ft


Zwischen 18:00 UTC und 00:00 UTC zeitweise

Wind 5 kt aus 140°

Sichtweite 2000 m

feuchter Dunst

aufgebrochene Bewölkung in 300 ft

TAF ETHS 071420Z 0715/0724 15006KT 8000 NSW BKN010 TEMPO 0715/0716 14008KT 4000 -RA BKN006 BECMG 0716/0718 14008KT 5000 BR SCT010 BKN100 TEMPO 0718/0724 14005KT 2000 BR BKN003
Impressum